createdAt,value
2022-11-28T00:02:13.392Z,98.09
2022-11-28T00:04:44.085Z,98.05
2022-11-28T00:07:14.561Z,98.08
2022-11-28T00:09:43.491Z,98.02
2022-11-28T00:12:12.591Z,98.03
2022-11-28T00:14:42.979Z,98.08
2022-11-28T00:17:13.291Z,97.99
2022-11-28T00:19:43.413Z,98.01
2022-11-28T00:22:12.702Z,97.88
2022-11-28T00:24:43.106Z,97.82
2022-11-28T00:27:11.670Z,97.73
2022-11-28T00:29:41.584Z,97.64
2022-11-28T00:32:10.356Z,97.49
2022-11-28T00:34:39.298Z,97.50
2022-11-28T00:37:08.519Z,97.57
2022-11-28T00:39:37.765Z,97.49
2022-11-28T00:42:06.448Z,97.42
2022-11-28T00:44:35.112Z,97.51
2022-11-28T00:47:05.431Z,97.49
2022-11-28T00:49:35.950Z,97.49
2022-11-28T00:52:05.487Z,97.31
2022-11-28T00:54:34.025Z,97.32
2022-11-28T00:57:04.019Z,97.38
2022-11-28T00:59:32.919Z,97.35
2022-11-28T01:02:02.227Z,97.16
2022-11-28T01:04:31.022Z,97.00
2022-11-28T01:06:59.685Z,97.08
2022-11-28T01:09:29.440Z,97.23
2022-11-28T01:11:58.045Z,97.24
2022-11-28T01:14:26.611Z,97.25
2022-11-28T01:16:55.560Z,97.24
2022-11-28T01:19:23.951Z,97.13
2022-11-28T01:21:52.666Z,97.16
2022-11-28T01:24:21.357Z,97.24
2022-11-28T01:26:50.150Z,97.22
2022-11-28T01:29:19.267Z,97.16
2022-11-28T01:31:47.914Z,97.12
2022-11-28T01:34:18.153Z,97.15
2022-11-28T01:36:48.117Z,97.19
2022-11-28T01:39:16.856Z,97.12
2022-11-28T01:41:45.498Z,97.10
2022-11-28T01:44:19.629Z,97.13
2022-11-28T01:46:48.410Z,97.14
2022-11-28T01:49:31.914Z,97.19
2022-11-28T01:52:05.206Z,97.12
2022-11-28T01:54:34.063Z,97.01
2022-11-28T01:57:06.724Z,96.94
2022-11-28T01:59:39.242Z,96.97
2022-11-28T02:02:10.427Z,96.95
2022-11-28T02:04:38.916Z,96.91
2022-11-28T02:07:11.038Z,96.73
2022-11-28T02:09:40.054Z,96.78
2022-11-28T02:13:00.004Z,96.84
2022-11-28T02:15:50.836Z,96.85
2022-11-28T02:18:54.857Z,96.88
2022-11-28T02:21:40.621Z,96.98
2022-11-28T02:24:36.423Z,97.05
2022-11-28T02:27:38.532Z,97.12
2022-11-28T02:30:56.863Z,97.17
2022-11-28T02:33:38.163Z,97.00
2022-11-28T02:36:18.173Z,96.96
2022-11-28T02:39:14.291Z,97.21
2022-11-28T02:42:01.006Z,97.24
2022-11-28T02:44:47.798Z,97.25
2022-11-28T02:47:37.400Z,97.25
2022-11-28T02:50:26.513Z,97.20
2022-11-28T02:53:09.718Z,97.16
2022-11-28T02:55:40.115Z,97.28
2022-11-28T02:58:10.392Z,97.39
2022-11-28T03:00:43.516Z,97.35
2022-11-28T03:03:23.371Z,97.30
2022-11-28T03:06:14.425Z,97.35
2022-11-28T03:09:23.555Z,97.45
2022-11-28T03:12:10.018Z,97.51
2022-11-28T03:14:53.202Z,97.45
2022-11-28T03:18:00.590Z,97.41
2022-11-28T03:20:48.425Z,97.47
2022-11-28T03:23:37.059Z,97.56
2022-11-28T03:26:49.283Z,97.59
2022-11-28T03:29:41.814Z,97.61
2022-11-28T03:32:29.724Z,97.50
2022-11-28T03:35:18.692Z,97.44
2022-11-28T03:37:58.001Z,97.47
2022-11-28T03:40:30.772Z,97.48
2022-11-28T03:43:04.448Z,97.48
2022-11-28T03:45:41.337Z,97.44
2022-11-28T03:48:15.125Z,97.45
2022-11-28T03:50:51.147Z,97.47
2022-11-28T03:53:51.864Z,97.46
2022-11-28T03:56:38.037Z,97.41
2022-11-28T03:59:30.254Z,97.40
2022-11-28T04:02:10.585Z,97.41
2022-11-28T04:05:05.936Z,97.44
2022-11-28T04:07:40.375Z,97.52
2022-11-28T04:10:30.058Z,97.54
2022-11-28T04:13:21.287Z,97.47
2022-11-28T04:16:13.451Z,97.48
2022-11-28T04:18:59.682Z,97.58
2022-11-28T04:21:36.243Z,97.65
2022-11-28T04:24:10.927Z,97.76
2022-11-28T04:26:49.366Z,97.83
2022-11-28T04:29:20.539Z,97.85
2022-11-28T04:31:50.723Z,97.84
2022-11-28T04:34:19.596Z,97.96
2022-11-28T04:36:48.550Z,98.04
2022-11-28T04:39:19.616Z,98.05
2022-11-28T04:42:13.513Z,98.06
2022-11-28T04:45:00.243Z,98.17
2022-11-28T04:47:30.367Z,98.24
2022-11-28T04:49:58.970Z,98.30
2022-11-28T04:52:42.233Z,98.19
2022-11-28T04:55:32.170Z,98.20
2022-11-28T04:58:11.967Z,98.22
2022-11-28T05:00:40.815Z,98.21
2022-11-28T05:03:09.576Z,98.29
2022-11-28T05:05:48.748Z,98.27
2022-11-28T05:08:18.392Z,98.26
2022-11-28T05:10:46.949Z,98.36
2022-11-28T05:13:15.738Z,98.44
2022-11-28T05:15:44.265Z,98.51
2022-11-28T05:18:13.628Z,98.52
2022-11-28T05:20:43.902Z,98.51
2022-11-28T05:23:12.655Z,98.54
2022-11-28T05:25:41.421Z,98.53
2022-11-28T05:28:10.931Z,98.57
2022-11-28T05:30:39.640Z,98.45
2022-11-28T05:33:08.374Z,98.42
2022-11-28T05:35:40.103Z,98.42
2022-11-28T05:38:13.424Z,98.26
2022-11-28T05:40:43.951Z,98.31
2022-11-28T05:43:12.505Z,98.37
2022-11-28T05:45:42.651Z,98.36
2022-11-28T05:48:11.435Z,98.33
2022-11-28T05:50:41.805Z,98.33
2022-11-28T05:53:11.024Z,98.39
2022-11-28T05:55:40.986Z,98.45
2022-11-28T05:58:09.780Z,98.51
2022-11-28T06:00:38.727Z,98.50
2022-11-28T06:03:07.274Z,98.55
2022-11-28T06:05:43.151Z,98.63
2022-11-28T06:08:12.555Z,98.60
2022-11-28T06:10:41.259Z,98.61
2022-11-28T06:13:09.761Z,98.64
2022-11-28T06:15:42.525Z,98.74
2022-11-28T06:18:12.786Z,98.83
2022-11-28T06:20:41.696Z,98.83
2022-11-28T06:23:10.529Z,98.83
2022-11-28T06:25:40.434Z,98.69
2022-11-28T06:28:09.137Z,98.77
2022-11-28T06:30:37.748Z,98.87
2022-11-28T06:33:06.834Z,98.91
2022-11-28T06:35:35.680Z,98.93
2022-11-28T06:38:04.429Z,98.94
2022-11-28T06:40:35.017Z,98.96
2022-11-28T06:43:03.626Z,98.94
2022-11-28T06:45:34.815Z,98.96
2022-11-28T06:48:04.455Z,98.97
2022-11-28T06:50:33.006Z,98.95
2022-11-28T06:53:01.791Z,98.92
2022-11-28T06:55:30.816Z,98.89
2022-11-28T06:57:59.547Z,98.93
2022-11-28T07:00:28.173Z,98.94
2022-11-28T07:02:58.074Z,98.88
2022-11-28T07:05:30.854Z,98.87
2022-11-28T07:07:59.637Z,98.76
2022-11-28T07:10:28.786Z,98.59
2022-11-28T07:13:03.766Z,98.53
2022-11-28T07:15:33.024Z,98.54
2022-11-28T07:18:01.791Z,98.54
2022-11-28T07:20:30.518Z,98.50
2022-11-28T07:23:00.973Z,98.32
2022-11-28T07:25:29.755Z,98.21
2022-11-28T07:28:00.091Z,98.18
2022-11-28T07:30:28.833Z,98.11
2022-11-28T07:32:57.665Z,98.12
2022-11-28T07:35:27.173Z,98.15
2022-11-28T07:37:55.894Z,98.17
2022-11-28T07:40:24.945Z,98.04
2022-11-28T07:42:53.885Z,98.05
2022-11-28T07:45:22.991Z,98.04
2022-11-28T07:47:52.239Z,97.93
2022-11-28T07:50:21.802Z,97.81
2022-11-28T07:52:51.846Z,97.81
2022-11-28T07:55:20.999Z,97.65
2022-11-28T07:57:49.468Z,97.54
2022-11-28T08:00:20.290Z,97.51
2022-11-28T08:02:49.441Z,97.50
2022-11-28T08:05:19.068Z,97.56
2022-11-28T08:07:50.993Z,97.57
2022-11-28T08:10:19.578Z,97.58
2022-11-28T08:12:49.770Z,97.59
2022-11-28T08:15:19.327Z,97.45
2022-11-28T08:17:48.100Z,97.35
2022-11-28T08:20:17.894Z,97.36
2022-11-28T08:22:47.079Z,97.16
2022-11-28T08:25:16.318Z,96.97
2022-11-28T08:27:44.988Z,96.99
2022-11-28T08:30:14.245Z,96.96
2022-11-28T08:32:43.312Z,96.99
2022-11-28T08:35:13.295Z,97.08
2022-11-28T08:37:42.487Z,96.86
2022-11-28T08:40:12.763Z,96.72
2022-11-28T08:42:42.565Z,96.53
2022-11-28T08:45:11.777Z,96.42
2022-11-28T08:47:40.357Z,96.42
2022-11-28T08:50:09.429Z,96.49
2022-11-28T08:52:38.643Z,96.47
2022-11-28T08:55:08.496Z,96.63
2022-11-28T08:57:37.076Z,96.55
2022-11-28T09:00:07.517Z,96.65
2022-11-28T09:02:36.102Z,96.66
2022-11-28T09:05:06.045Z,96.49
2022-11-28T09:07:34.870Z,96.52
2022-11-28T09:10:04.897Z,96.47
2022-11-28T09:12:34.108Z,96.31
2022-11-28T09:15:03.737Z,96.16
2022-11-28T09:17:32.793Z,96.18
2022-11-28T09:20:01.570Z,96.27
2022-11-28T09:22:31.046Z,96.16
2022-11-28T09:24:59.690Z,96.03
2022-11-28T09:27:28.316Z,96.25
2022-11-28T09:29:57.044Z,96.39
2022-11-28T09:32:26.719Z,96.38
2022-11-28T09:34:56.330Z,96.51
2022-11-28T09:37:27.507Z,96.55
2022-11-28T09:40:12.757Z,96.46
2022-11-28T09:42:41.699Z,96.34
2022-11-28T09:45:18.349Z,96.36
2022-11-28T09:47:51.971Z,96.30
2022-11-28T09:50:33.176Z,96.27
2022-11-28T09:53:41.017Z,96.35
2022-11-28T09:56:15.454Z,96.29
2022-11-28T09:58:49.989Z,96.23
2022-11-28T10:01:45.476Z,96.17
2022-11-28T10:04:26.464Z,96.17
2022-11-28T10:07:16.992Z,96.37
2022-11-28T10:10:10.834Z,96.22
2022-11-28T10:13:06.994Z,96.33
2022-11-28T10:16:18.125Z,96.53
2022-11-28T10:18:55.384Z,96.62
2022-11-28T10:21:41.285Z,96.59
2022-11-28T10:24:20.964Z,96.64
2022-11-28T10:26:52.933Z,96.68
2022-11-28T10:29:43.309Z,96.59
2022-11-28T10:32:18.915Z,96.61
2022-11-28T10:35:15.271Z,96.66
2022-11-28T10:37:47.543Z,96.72
2022-11-28T10:40:27.684Z,96.83
2022-11-28T10:43:03.844Z,96.67
2022-11-28T10:45:50.517Z,96.67
2022-11-28T10:48:39.957Z,96.44
2022-11-28T10:51:28.274Z,96.36
2022-11-28T10:54:18.763Z,96.16
2022-11-28T10:56:55.865Z,96.24
2022-11-28T10:59:59.863Z,96.28
2022-11-28T11:02:54.648Z,96.11
2022-11-28T11:05:29.887Z,95.94
2022-11-28T11:08:54.488Z,95.74
2022-11-28T16:42:56.708Z,100.00
2022-11-28T16:45:29.721Z,100.00
2022-11-28T16:48:17.916Z,100.00
2022-11-28T16:51:17.277Z,100.00
2022-11-28T16:53:52.432Z,100.00
2022-11-28T16:56:37.327Z,100.00
2022-11-28T16:59:14.968Z,100.00
2022-11-28T17:01:48.244Z,100.00
2022-11-28T17:04:29.854Z,100.00
2022-11-28T17:07:01.932Z,100.00
2022-11-28T17:09:33.593Z,100.00
2022-11-28T17:12:10.601Z,100.00
2022-11-28T17:14:43.258Z,100.00
2022-11-28T17:17:16.278Z,100.00
2022-11-28T17:19:46.448Z,100.00
2022-11-28T17:22:20.430Z,100.00
2022-11-28T17:24:49.965Z,100.00
2022-11-28T17:27:19.751Z,100.00
2022-11-28T17:29:55.267Z,100.00
2022-11-28T17:32:25.015Z,100.00
2022-11-28T17:34:54.155Z,100.00
2022-11-28T17:37:24.275Z,100.00
2022-11-28T17:40:12.055Z,100.00
2022-11-28T17:42:41.851Z,100.00
2022-11-28T17:45:16.492Z,100.00
2022-11-28T17:47:56.731Z,100.00
2022-11-28T17:50:44.683Z,100.00
2022-11-28T17:53:23.809Z,100.00
2022-11-28T17:55:55.888Z,100.00
2022-11-28T17:58:26.437Z,100.00
2022-11-28T18:01:00.209Z,100.00
2022-11-28T18:03:29.516Z,100.00
2022-11-28T18:05:59.231Z,100.00
2022-11-28T18:08:29.283Z,100.00
2022-11-28T18:11:07.821Z,100.00
2022-11-28T18:13:36.753Z,100.00
2022-11-28T18:16:07.202Z,100.00
2022-11-28T18:18:36.401Z,100.00
2022-11-28T18:21:09.473Z,100.00
2022-11-28T18:23:43.749Z,100.00
2022-11-28T18:26:24.686Z,100.00
2022-11-28T18:28:54.099Z,100.00
2022-11-28T18:31:26.770Z,100.00
2022-11-28T18:34:01.804Z,100.00
2022-11-28T18:36:31.924Z,100.00
2022-11-28T18:39:05.415Z,100.00
2022-11-28T21:34:15.080Z,100.00
2022-11-28T21:36:45.130Z,100.00
2022-11-28T21:39:16.869Z,100.00
2022-11-28T21:41:48.005Z,100.00
2022-11-28T21:44:16.724Z,100.00
2022-11-28T21:46:47.243Z,100.00
2022-11-28T21:49:16.670Z,100.00
2022-11-28T21:51:45.643Z,100.00
2022-11-28T21:54:15.005Z,100.00
2022-11-28T21:56:45.290Z,100.00
2022-11-28T21:59:13.933Z,100.00
2022-11-28T22:01:44.044Z,100.00
2022-11-28T22:04:12.518Z,100.00
2022-11-28T22:06:41.250Z,100.00
2022-11-28T22:09:10.237Z,100.00
2022-11-28T22:11:40.372Z,100.00
2022-11-28T22:14:10.876Z,100.00
2022-11-28T22:16:40.037Z,100.00
2022-11-28T22:19:09.528Z,100.00
2022-11-28T22:21:56.732Z,100.00
2022-11-28T22:24:09.213Z,100.00
2022-11-28T22:26:39.547Z,100.00
2022-11-28T22:29:08.343Z,100.00
2022-11-28T22:31:37.946Z,100.00
2022-11-28T22:34:08.856Z,100.00
2022-11-28T22:36:38.201Z,100.00
2022-11-28T22:39:07.009Z,100.00
2022-11-28T22:41:36.073Z,100.00
2022-11-28T22:44:05.954Z,100.00
2022-11-28T22:46:34.541Z,100.00
2022-11-28T22:49:03.855Z,100.00
2022-11-28T22:51:32.381Z,100.00
2022-11-28T22:54:01.446Z,100.00
2022-11-28T22:56:32.708Z,100.00
2022-11-28T22:59:04.253Z,100.00
2022-11-28T23:01:34.473Z,100.00
2022-11-28T23:04:03.618Z,100.00
2022-11-28T23:06:34.609Z,100.00
2022-11-28T23:09:06.216Z,100.00
2022-11-28T23:11:36.352Z,100.00
2022-11-28T23:14:06.855Z,100.00
2022-11-28T23:16:38.963Z,100.00
2022-11-28T23:19:17.800Z,100.00
2022-11-28T23:21:49.677Z,100.00
2022-11-28T23:24:21.489Z,100.00
2022-11-28T23:26:50.976Z,100.00
2022-11-28T23:29:20.091Z,100.00
2022-11-28T23:31:50.844Z,100.00
2022-11-28T23:34:19.639Z,100.00
2022-11-28T23:36:50.691Z,100.00
2022-11-28T23:39:21.989Z,100.00
2022-11-28T23:41:51.617Z,100.00
2022-11-28T23:44:20.469Z,100.00
2022-11-28T23:46:49.694Z,100.00
2022-11-28T23:49:18.239Z,100.00
2022-11-28T23:51:47.357Z,100.00
2022-11-28T23:54:18.408Z,100.00
2022-11-28T23:56:47.205Z,100.00
2022-11-28T23:59:16.239Z,100.00
